sensor_id;sensor_type;location;lat;lon;timestamp;temperature;humidity
19888;DHT22;10106;51.332;12.336;2022-09-20T00:00:42;9.80;99.90
19888;DHT22;10106;51.332;12.336;2022-09-20T00:03:09;9.90;99.90
19888;DHT22;10106;51.332;12.336;2022-09-20T00:05:37;9.90;99.90
19888;DHT22;10106;51.332;12.336;2022-09-20T00:08:04;10.00;99.90
19888;DHT22;10106;51.332;12.336;2022-09-20T00:10:33;10.00;99.90
19888;DHT22;10106;51.332;12.336;2022-09-20T00:13:01;10.10;99.90
19888;DHT22;10106;51.332;12.336;2022-09-20T00:15:28;10.10;99.90
19888;DHT22;10106;51.332;12.336;2022-09-20T00:17:53;10.10;99.90
19888;DHT22;10106;51.332;12.336;2022-09-20T00:20:19;10.10;99.90
19888;DHT22;10106;51.332;12.336;2022-09-20T00:22:45;10.10;99.90
19888;DHT22;10106;51.332;12.336;2022-09-20T00:25:14;10.20;99.90
19888;DHT22;10106;51.332;12.336;2022-09-20T00:27:40;10.20;99.90
19888;DHT22;10106;51.332;12.336;2022-09-20T00:30:06;10.20;99.90
19888;DHT22;10106;51.332;12.336;2022-09-20T00:32:35;10.20;99.90
19888;DHT22;10106;51.332;12.336;2022-09-20T00:35:01;10.20;99.90
19888;DHT22;10106;51.332;12.336;2022-09-20T00:37:41;10.30;99.90
19888;DHT22;10106;51.332;12.336;2022-09-20T00:40:11;10.30;99.90
19888;DHT22;10106;51.332;12.336;2022-09-20T00:42:37;10.30;99.90
19888;DHT22;10106;51.332;12.336;2022-09-20T00:45:19;10.30;99.90
19888;DHT22;10106;51.332;12.336;2022-09-20T00:48:22;10.30;99.90
19888;DHT22;10106;51.332;12.336;2022-09-20T00:51:04;10.30;99.90
19888;DHT22;10106;51.332;12.336;2022-09-20T00:53:34;10.30;99.90
19888;DHT22;10106;51.332;12.336;2022-09-20T00:56:04;10.30;99.90
19888;DHT22;10106;51.332;12.336;2022-09-20T00:58:36;10.20;99.90
19888;DHT22;10106;51.332;12.336;2022-09-20T01:01:03;10.30;99.90
19888;DHT22;10106;51.332;12.336;2022-09-20T01:03:31;10.30;99.90
19888;DHT22;10106;51.332;12.336;2022-09-20T01:06:03;10.30;99.90
19888;DHT22;10106;51.332;12.336;2022-09-20T01:08:31;10.30;99.90
19888;DHT22;10106;51.332;12.336;2022-09-20T01:10:57;10.30;99.90
19888;DHT22;10106;51.332;12.336;2022-09-20T01:13:23;10.30;99.90
19888;DHT22;10106;51.332;12.336;2022-09-20T01:15:50;10.30;99.90
19888;DHT22;10106;51.332;12.336;2022-09-20T01:18:17;10.30;99.90
19888;DHT22;10106;51.332;12.336;2022-09-20T01:20:45;10.40;99.90
19888;DHT22;10106;51.332;12.336;2022-09-20T01:23:29;10.40;99.90
19888;DHT22;10106;51.332;12.336;2022-09-20T01:28:43;10.40;99.90
19888;DHT22;10106;51.332;12.336;2022-09-20T01:31:28;10.30;99.90
19888;DHT22;10106;51.332;12.336;2022-09-20T01:34:01;10.40;99.90
19888;DHT22;10106;51.332;12.336;2022-09-20T01:36:43;10.40;99.90
19888;DHT22;10106;51.332;12.336;2022-09-20T01:39:19;10.40;99.90
19888;DHT22;10106;51.332;12.336;2022-09-20T01:42:01;10.40;99.90
19888;DHT22;10106;51.332;12.336;2022-09-20T01:44:52;10.40;99.90
19888;DHT22;10106;51.332;12.336;2022-09-20T01:50:32;10.30;99.90
19888;DHT22;10106;51.332;12.336;2022-09-20T02:04:07;10.30;99.90
19888;DHT22;10106;51.332;12.336;2022-09-20T02:12:32;10.30;99.90
19888;DHT22;10106;51.332;12.336;2022-09-20T02:23:31;10.30;99.90
19888;DHT22;10106;51.332;12.336;2022-09-20T02:29:24;10.20;99.90
19888;DHT22;10106;51.332;12.336;2022-09-20T02:32:40;10.20;99.90
19888;DHT22;10106;51.332;12.336;2022-09-20T02:35:32;10.20;99.90
19888;DHT22;10106;51.332;12.336;2022-09-20T02:44:17;10.10;99.90
19888;DHT22;10106;51.332;12.336;2022-09-20T02:46:53;10.10;99.90
19888;DHT22;10106;51.332;12.336;2022-09-20T02:52:01;10.10;99.90
19888;DHT22;10106;51.332;12.336;2022-09-20T03:02:29;10.10;99.90
19888;DHT22;10106;51.332;12.336;2022-09-20T03:05:24;10.10;99.90
19888;DHT22;10106;51.332;12.336;2022-09-20T03:08:03;10.10;99.90
19888;DHT22;10106;51.332;12.336;2022-09-20T03:10:46;10.10;99.90
19888;DHT22;10106;51.332;12.336;2022-09-20T03:19:05;10.00;99.90
19888;DHT22;10106;51.332;12.336;2022-09-20T03:21:58;10.00;99.90
19888;DHT22;10106;51.332;12.336;2022-09-20T03:27:24;9.90;99.90
19888;DHT22;10106;51.332;12.336;2022-09-20T03:33:21;9.90;99.90
19888;DHT22;10106;51.332;12.336;2022-09-20T03:38:33;9.90;99.90
19888;DHT22;10106;51.332;12.336;2022-09-20T03:46:27;9.90;99.90
19888;DHT22;10106;51.332;12.336;2022-09-20T04:06:56;9.80;99.90
19888;DHT22;10106;51.332;12.336;2022-09-20T04:09:55;9.80;99.90
19888;DHT22;10106;51.332;12.336;2022-09-20T04:24:00;9.70;99.90
19888;DHT22;10106;51.332;12.336;2022-09-20T04:26:34;9.70;99.90
19888;DHT22;10106;51.332;12.336;2022-09-20T04:31:41;9.60;99.90
19888;DHT22;10106;51.332;12.336;2022-09-20T04:34:45;9.60;99.90
19888;DHT22;10106;51.332;12.336;2022-09-20T04:37:33;9.60;99.90
19888;DHT22;10106;51.332;12.336;2022-09-20T04:43:07;9.60;99.90
19888;DHT22;10106;51.332;12.336;2022-09-20T04:48:57;9.60;99.90
19888;DHT22;10106;51.332;12.336;2022-09-20T05:05:55;9.60;99.90
19888;DHT22;10106;51.332;12.336;2022-09-20T05:31:02;9.90;99.90
19888;DHT22;10106;51.332;12.336;2022-09-20T05:38:47;9.90;99.90
19888;DHT22;10106;51.332;12.336;2022-09-20T05:41:44;10.00;99.90
19888;DHT22;10106;51.332;12.336;2022-09-20T05:47:18;10.10;99.90
19888;DHT22;10106;51.332;12.336;2022-09-20T05:50:13;10.20;99.90
19888;DHT22;10106;51.332;12.336;2022-09-20T06:01:31;10.30;99.90
19888;DHT22;10106;51.332;12.336;2022-09-20T06:04:15;10.40;99.90
19888;DHT22;10106;51.332;12.336;2022-09-20T06:06:51;10.40;99.90
19888;DHT22;10106;51.332;12.336;2022-09-20T06:12:51;10.40;99.90
19888;DHT22;10106;51.332;12.336;2022-09-20T06:18:23;10.40;99.90
19888;DHT22;10106;51.332;12.336;2022-09-20T06:23:36;10.40;99.90
19888;DHT22;10106;51.332;12.336;2022-09-20T06:26:08;10.40;99.90
19888;DHT22;10106;51.332;12.336;2022-09-20T06:28:40;10.60;99.90
19888;DHT22;10106;51.332;12.336;2022-09-20T06:31:07;10.70;99.90
19888;DHT22;10106;51.332;12.336;2022-09-20T06:34:07;10.80;99.90
19888;DHT22;10106;51.332;12.336;2022-09-20T06:36:36;10.80;99.90
19888;DHT22;10106;51.332;12.336;2022-09-20T06:42:20;10.70;99.90
19888;DHT22;10106;51.332;12.336;2022-09-20T06:44:46;10.70;99.90
19888;DHT22;10106;51.332;12.336;2022-09-20T06:47:15;10.70;99.90
19888;DHT22;10106;51.332;12.336;2022-09-20T06:49:40;10.70;99.90
19888;DHT22;10106;51.332;12.336;2022-09-20T06:52:13;10.70;99.90
19888;DHT22;10106;51.332;12.336;2022-09-20T06:54:39;10.70;99.90
19888;DHT22;10106;51.332;12.336;2022-09-20T06:57:12;10.70;99.90
19888;DHT22;10106;51.332;12.336;2022-09-20T06:59:38;10.80;99.90
19888;DHT22;10106;51.332;12.336;2022-09-20T07:02:04;10.80;99.90
19888;DHT22;10106;51.332;12.336;2022-09-20T07:04:30;10.90;99.90
19888;DHT22;10106;51.332;12.336;2022-09-20T07:07:02;11.00;99.90
19888;DHT22;10106;51.332;12.336;2022-09-20T07:09:28;11.00;99.90
19888;DHT22;10106;51.332;12.336;2022-09-20T07:11:54;11.00;99.90
19888;DHT22;10106;51.332;12.336;2022-09-20T07:14:22;11.20;99.90
19888;DHT22;10106;51.332;12.336;2022-09-20T07:16:47;11.20;99.90
19888;DHT22;10106;51.332;12.336;2022-09-20T07:19:13;11.30;99.90
19888;DHT22;10106;51.332;12.336;2022-09-20T07:21:40;11.30;99.90
19888;DHT22;10106;51.332;12.336;2022-09-20T07:24:06;11.50;99.90
19888;DHT22;10106;51.332;12.336;2022-09-20T07:26:31;11.60;99.90
19888;DHT22;10106;51.332;12.336;2022-09-20T07:28:58;11.80;99.90
19888;DHT22;10106;51.332;12.336;2022-09-20T07:31:25;11.90;99.90
19888;DHT22;10106;51.332;12.336;2022-09-20T07:33:51;12.00;99.90
19888;DHT22;10106;51.332;12.336;2022-09-20T07:36:17;12.00;99.90
19888;DHT22;10106;51.332;12.336;2022-09-20T07:38:47;12.30;99.90
19888;DHT22;10106;51.332;12.336;2022-09-20T07:41:13;12.50;99.90
19888;DHT22;10106;51.332;12.336;2022-09-20T07:43:39;12.50;99.90
19888;DHT22;10106;51.332;12.336;2022-09-20T07:46:04;12.60;99.90
19888;DHT22;10106;51.332;12.336;2022-09-20T07:48:34;12.70;99.90
19888;DHT22;10106;51.332;12.336;2022-09-20T07:51:08;12.80;99.90
19888;DHT22;10106;51.332;12.336;2022-09-20T07:53:34;12.70;99.90
19888;DHT22;10106;51.332;12.336;2022-09-20T07:58:28;12.30;99.90
19888;DHT22;10106;51.332;12.336;2022-09-20T08:00:56;12.20;99.90
19888;DHT22;10106;51.332;12.336;2022-09-20T08:03:23;12.30;99.90
19888;DHT22;10106;51.332;12.336;2022-09-20T08:05:49;12.60;99.90
19888;DHT22;10106;51.332;12.336;2022-09-20T08:08:16;13.20;99.90
19888;DHT22;10106;51.332;12.336;2022-09-20T08:10:43;13.90;99.90
19888;DHT22;10106;51.332;12.336;2022-09-20T08:13:13;15.00;99.90
19888;DHT22;10106;51.332;12.336;2022-09-20T08:15:39;15.30;99.90
19888;DHT22;10106;51.332;12.336;2022-09-20T08:18:06;15.20;99.90
19888;DHT22;10106;51.332;12.336;2022-09-20T08:20:37;15.10;99.90
19888;DHT22;10106;51.332;12.336;2022-09-20T08:23:04;14.90;99.90
19888;DHT22;10106;51.332;12.336;2022-09-20T08:25:30;14.80;99.90
19888;DHT22;10106;51.332;12.336;2022-09-20T08:27:55;15.30;99.90
19888;DHT22;10106;51.332;12.336;2022-09-20T08:30:21;15.70;99.90
19888;DHT22;10106;51.332;12.336;2022-09-20T08:32:48;15.70;99.90
19888;DHT22;10106;51.332;12.336;2022-09-20T08:35:14;15.50;99.90
19888;DHT22;10106;51.332;12.336;2022-09-20T08:37:40;15.10;99.90
19888;DHT22;10106;51.332;12.336;2022-09-20T08:40:10;14.60;99.90
19888;DHT22;10106;51.332;12.336;2022-09-20T08:42:37;14.30;99.90
19888;DHT22;10106;51.332;12.336;2022-09-20T08:45:05;14.10;99.90
19888;DHT22;10106;51.332;12.336;2022-09-20T08:47:34;14.20;99.90
19888;DHT22;10106;51.332;12.336;2022-09-20T08:50:04;14.10;99.90
19888;DHT22;10106;51.332;12.336;2022-09-20T08:52:33;14.10;99.90
19888;DHT22;10106;51.332;12.336;2022-09-20T08:55:01;14.00;99.90
19888;DHT22;10106;51.332;12.336;2022-09-20T08:57:30;14.00;99.90
19888;DHT22;10106;51.332;12.336;2022-09-20T08:59:59;13.90;99.90
19888;DHT22;10106;51.332;12.336;2022-09-20T09:02:30;13.90;99.90
19888;DHT22;10106;51.332;12.336;2022-09-20T09:04:56;14.10;99.90
19888;DHT22;10106;51.332;12.336;2022-09-20T09:07:23;14.00;99.90
19888;DHT22;10106;51.332;12.336;2022-09-20T09:09:51;14.00;99.90
19888;DHT22;10106;51.332;12.336;2022-09-20T09:12:25;14.10;99.90
19888;DHT22;10106;51.332;12.336;2022-09-20T09:14:52;14.30;99.90
19888;DHT22;10106;51.332;12.336;2022-09-20T09:17:24;14.60;99.90
19888;DHT22;10106;51.332;12.336;2022-09-20T09:19:58;14.90;99.90
19888;DHT22;10106;51.332;12.336;2022-09-20T09:22:29;15.10;99.90
19888;DHT22;10106;51.332;12.336;2022-09-20T09:25:22;15.50;99.90
19888;DHT22;10106;51.332;12.336;2022-09-20T09:27:53;15.20;99.90
19888;DHT22;10106;51.332;12.336;2022-09-20T09:30:48;15.10;99.90
19888;DHT22;10106;51.332;12.336;2022-09-20T09:33:24;14.80;99.90
19888;DHT22;10106;51.332;12.336;2022-09-20T09:38:26;15.50;99.90
19888;DHT22;10106;51.332;12.336;2022-09-20T09:40:59;16.40;99.90
19888;DHT22;10106;51.332;12.336;2022-09-20T09:43:30;16.70;99.90
19888;DHT22;10106;51.332;12.336;2022-09-20T09:46:18;16.20;99.90
19888;DHT22;10106;51.332;12.336;2022-09-20T09:48:46;16.00;99.90
19888;DHT22;10106;51.332;12.336;2022-09-20T09:51:19;15.50;99.90
19888;DHT22;10106;51.332;12.336;2022-09-20T09:53:47;15.00;99.90
19888;DHT22;10106;51.332;12.336;2022-09-20T09:59:08;14.50;99.90
19888;DHT22;10106;51.332;12.336;2022-09-20T10:04:35;14.60;99.90
19888;DHT22;10106;51.332;12.336;2022-09-20T10:07:22;15.10;99.90
19888;DHT22;10106;51.332;12.336;2022-09-20T10:10:28;15.40;99.90
19888;DHT22;10106;51.332;12.336;2022-09-20T10:16:13;16.50;99.90
19888;DHT22;10106;51.332;12.336;2022-09-20T10:21:52;16.80;99.90
19888;DHT22;10106;51.332;12.336;2022-09-20T10:35:25;18.10;99.90
19888;DHT22;10106;51.332;12.336;2022-09-20T10:38:21;18.30;99.90
19888;DHT22;10106;51.332;12.336;2022-09-20T10:41:03;18.50;99.90
19888;DHT22;10106;51.332;12.336;2022-09-20T10:47:17;17.80;99.90
19888;DHT22;10106;51.332;12.336;2022-09-20T10:50:23;17.10;99.90
19888;DHT22;10106;51.332;12.336;2022-09-20T10:58:28;15.90;99.90
19888;DHT22;10106;51.332;12.336;2022-09-20T11:01:37;15.60;99.90
19888;DHT22;10106;51.332;12.336;2022-09-20T11:07:07;14.40;99.90
19888;DHT22;10106;51.332;12.336;2022-09-20T11:09:41;14.20;99.90
19888;DHT22;10106;51.332;12.336;2022-09-20T11:12:43;14.00;99.90
19888;DHT22;10106;51.332;12.336;2022-09-20T11:15:23;13.90;99.90
19888;DHT22;10106;51.332;12.336;2022-09-20T11:18:05;13.90;99.90
19888;DHT22;10106;51.332;12.336;2022-09-20T11:20:45;14.40;99.90
19888;DHT22;10106;51.332;12.336;2022-09-20T11:23:17;15.00;99.90
19888;DHT22;10106;51.332;12.336;2022-09-20T11:25:49;15.30;99.90
19888;DHT22;10106;51.332;12.336;2022-09-20T11:28:36;15.60;99.90
19888;DHT22;10106;51.332;12.336;2022-09-20T11:31:10;15.90;99.90
19888;DHT22;10106;51.332;12.336;2022-09-20T11:36:29;16.10;99.90
19888;DHT22;10106;51.332;12.336;2022-09-20T11:42:00;15.60;99.90
19888;DHT22;10106;51.332;12.336;2022-09-20T11:44:27;15.70;99.90
19888;DHT22;10106;51.332;12.336;2022-09-20T11:47:25;15.80;99.90
19888;DHT22;10106;51.332;12.336;2022-09-20T11:50:28;15.90;99.90
19888;DHT22;10106;51.332;12.336;2022-09-20T11:53:25;15.80;99.90
19888;DHT22;10106;51.332;12.336;2022-09-20T11:58:45;15.80;99.90
19888;DHT22;10106;51.332;12.336;2022-09-20T12:01:13;15.90;99.90
19888;DHT22;10106;51.332;12.336;2022-09-20T12:03:43;16.00;99.90
19888;DHT22;10106;51.332;12.336;2022-09-20T12:06:21;16.00;99.90
19888;DHT22;10106;51.332;12.336;2022-09-20T12:08:50;15.80;99.90
19888;DHT22;10106;51.332;12.336;2022-09-20T12:11:35;15.50;99.90
19888;DHT22;10106;51.332;12.336;2022-09-20T12:14:16;15.20;99.90
19888;DHT22;10106;51.332;12.336;2022-09-20T12:16:47;15.00;99.90
19888;DHT22;10106;51.332;12.336;2022-09-20T12:24:35;14.80;99.90
19888;DHT22;10106;51.332;12.336;2022-09-20T12:32:45;15.90;99.90
19888;DHT22;10106;51.332;12.336;2022-09-20T12:41:05;15.60;99.90
19888;DHT22;10106;51.332;12.336;2022-09-20T12:43:34;15.90;99.90
19888;DHT22;10106;51.332;12.336;2022-09-20T12:46:00;16.10;99.90
19888;DHT22;10106;51.332;12.336;2022-09-20T12:48:31;16.30;99.90
19888;DHT22;10106;51.332;12.336;2022-09-20T12:51:21;16.60;99.90
19888;DHT22;10106;51.332;12.336;2022-09-20T12:54:10;16.60;99.90
19888;DHT22;10106;51.332;12.336;2022-09-20T12:56:38;16.70;99.90
19888;DHT22;10106;51.332;12.336;2022-09-20T12:59:17;16.70;99.90
19888;DHT22;10106;51.332;12.336;2022-09-20T13:01:45;17.00;99.90
19888;DHT22;10106;51.332;12.336;2022-09-20T13:04:50;17.10;99.90
19888;DHT22;10106;51.332;12.336;2022-09-20T13:07:39;16.90;99.90
19888;DHT22;10106;51.332;12.336;2022-09-20T13:10:33;16.80;99.90
19888;DHT22;10106;51.332;12.336;2022-09-20T13:13:10;16.80;99.90
19888;DHT22;10106;51.332;12.336;2022-09-20T13:15:37;17.00;99.90
19888;DHT22;10106;51.332;12.336;2022-09-20T13:18:04;17.20;99.90
19888;DHT22;10106;51.332;12.336;2022-09-20T13:20:31;17.40;99.90
19888;DHT22;10106;51.332;12.336;2022-09-20T13:23:00;17.50;99.90
19888;DHT22;10106;51.332;12.336;2022-09-20T13:25:27;17.70;99.90
19888;DHT22;10106;51.332;12.336;2022-09-20T13:28:06;17.70;99.90
19888;DHT22;10106;51.332;12.336;2022-09-20T13:30:33;17.40;99.90
19888;DHT22;10106;51.332;12.336;2022-09-20T13:33:22;17.10;99.90
19888;DHT22;10106;51.332;12.336;2022-09-20T13:35:51;16.80;99.90
19888;DHT22;10106;51.332;12.336;2022-09-20T13:38:19;16.70;99.90
19888;DHT22;10106;51.332;12.336;2022-09-20T13:40:47;16.70;99.90
19888;DHT22;10106;51.332;12.336;2022-09-20T13:43:36;16.60;99.90
19888;DHT22;10106;51.332;12.336;2022-09-20T13:46:11;16.50;99.90
19888;DHT22;10106;51.332;12.336;2022-09-20T13:48:37;16.50;99.90
19888;DHT22;10106;51.332;12.336;2022-09-20T13:51:13;16.50;99.90
19888;DHT22;10106;51.332;12.336;2022-09-20T13:53:39;16.40;99.90
19888;DHT22;10106;51.332;12.336;2022-09-20T13:56:10;16.30;99.90
19888;DHT22;10106;51.332;12.336;2022-09-20T13:58:40;16.40;99.90
19888;DHT22;10106;51.332;12.336;2022-09-20T14:01:20;16.40;99.90
19888;DHT22;10106;51.332;12.336;2022-09-20T14:03:47;16.40;99.90
19888;DHT22;10106;51.332;12.336;2022-09-20T14:06:13;16.40;99.90
19888;DHT22;10106;51.332;12.336;2022-09-20T14:08:48;16.30;99.90
19888;DHT22;10106;51.332;12.336;2022-09-20T14:11:21;16.30;99.90
19888;DHT22;10106;51.332;12.336;2022-09-20T14:13:49;16.20;99.90
19888;DHT22;10106;51.332;12.336;2022-09-20T14:16:17;16.00;99.90
19888;DHT22;10106;51.332;12.336;2022-09-20T14:18:45;15.90;99.90
19888;DHT22;10106;51.332;12.336;2022-09-20T14:21:13;15.80;99.90
19888;DHT22;10106;51.332;12.336;2022-09-20T14:26:41;15.70;99.90
19888;DHT22;10106;51.332;12.336;2022-09-20T14:29:40;15.60;99.90
19888;DHT22;10106;51.332;12.336;2022-09-20T14:32:10;15.40;99.90
19888;DHT22;10106;51.332;12.336;2022-09-20T14:34:40;15.20;99.90
19888;DHT22;10106;51.332;12.336;2022-09-20T14:37:12;15.00;99.90
19888;DHT22;10106;51.332;12.336;2022-09-20T14:39:48;14.90;99.90
19888;DHT22;10106;51.332;12.336;2022-09-20T14:44:50;14.90;99.90
19888;DHT22;10106;51.332;12.336;2022-09-20T14:47:34;15.00;99.90
19888;DHT22;10106;51.332;12.336;2022-09-20T14:50:01;15.10;99.90
19888;DHT22;10106;51.332;12.336;2022-09-20T14:55:22;15.10;99.90
19888;DHT22;10106;51.332;12.336;2022-09-20T14:57:47;15.00;99.90
19888;DHT22;10106;51.332;12.336;2022-09-20T15:00:14;14.90;99.90
19888;DHT22;10106;51.332;12.336;2022-09-20T15:02:42;14.90;99.90
19888;DHT22;10106;51.332;12.336;2022-09-20T15:05:25;14.70;99.90
19888;DHT22;10106;51.332;12.336;2022-09-20T15:07:55;14.70;99.90
19888;DHT22;10106;51.332;12.336;2022-09-20T15:10:22;14.70;99.90
19888;DHT22;10106;51.332;12.336;2022-09-20T15:12:47;14.70;99.90
19888;DHT22;10106;51.332;12.336;2022-09-20T15:15:16;14.70;99.90
19888;DHT22;10106;51.332;12.336;2022-09-20T15:17:42;14.70;99.90
19888;DHT22;10106;51.332;12.336;2022-09-20T15:20:20;14.70;99.90
19888;DHT22;10106;51.332;12.336;2022-09-20T15:22:47;14.70;99.90
19888;DHT22;10106;51.332;12.336;2022-09-20T15:25:18;14.60;99.90
19888;DHT22;10106;51.332;12.336;2022-09-20T15:27:46;14.60;99.90
19888;DHT22;10106;51.332;12.336;2022-09-20T15:30:14;14.60;99.90
19888;DHT22;10106;51.332;12.336;2022-09-20T15:32:44;14.50;99.90
19888;DHT22;10106;51.332;12.336;2022-09-20T15:35:10;14.40;99.90
19888;DHT22;10106;51.332;12.336;2022-09-20T15:37:36;14.40;99.90
19888;DHT22;10106;51.332;12.336;2022-09-20T15:40:04;14.40;99.90
19888;DHT22;10106;51.332;12.336;2022-09-20T15:42:30;14.40;99.90
19888;DHT22;10106;51.332;12.336;2022-09-20T15:44:55;14.30;99.90
19888;DHT22;10106;51.332;12.336;2022-09-20T15:47:21;14.30;99.90
19888;DHT22;10106;51.332;12.336;2022-09-20T15:49:50;14.30;99.90
19888;DHT22;10106;51.332;12.336;2022-09-20T15:52:16;14.30;99.90
19888;DHT22;10106;51.332;12.336;2022-09-20T15:54:41;14.30;99.90
19888;DHT22;10106;51.332;12.336;2022-09-20T15:57:07;14.20;99.90
19888;DHT22;10106;51.332;12.336;2022-09-20T15:59:33;14.20;99.90
19888;DHT22;10106;51.332;12.336;2022-09-20T16:01:59;14.10;99.90
19888;DHT22;10106;51.332;12.336;2022-09-20T16:04:25;14.10;99.90
19888;DHT22;10106;51.332;12.336;2022-09-20T16:06:54;14.10;99.90
19888;DHT22;10106;51.332;12.336;2022-09-20T16:09:20;14.00;99.90
19888;DHT22;10106;51.332;12.336;2022-09-20T16:11:46;14.00;99.90
19888;DHT22;10106;51.332;12.336;2022-09-20T16:14:12;14.00;99.90
19888;DHT22;10106;51.332;12.336;2022-09-20T16:16:38;13.90;99.90
19888;DHT22;10106;51.332;12.336;2022-09-20T16:19:04;13.90;99.90
19888;DHT22;10106;51.332;12.336;2022-09-20T16:21:43;13.90;99.90
19888;DHT22;10106;51.332;12.336;2022-09-20T16:24:12;13.80;99.90
19888;DHT22;10106;51.332;12.336;2022-09-20T16:26:38;13.80;99.90
19888;DHT22;10106;51.332;12.336;2022-09-20T16:29:04;13.70;99.90
19888;DHT22;10106;51.332;12.336;2022-09-20T16:36:47;13.60;99.90
19888;DHT22;10106;51.332;12.336;2022-09-20T16:39:14;13.50;99.90
19888;DHT22;10106;51.332;12.336;2022-09-20T16:41:41;13.40;99.90
19888;DHT22;10106;51.332;12.336;2022-09-20T16:44:07;13.30;99.90
19888;DHT22;10106;51.332;12.336;2022-09-20T16:46:33;13.30;99.90
19888;DHT22;10106;51.332;12.336;2022-09-20T16:49:06;13.20;99.90
19888;DHT22;10106;51.332;12.336;2022-09-20T16:51:34;13.10;99.90
19888;DHT22;10106;51.332;12.336;2022-09-20T16:54:11;13.10;99.90
19888;DHT22;10106;51.332;12.336;2022-09-20T16:56:40;12.90;99.90
19888;DHT22;10106;51.332;12.336;2022-09-20T16:59:06;12.80;99.90
19888;DHT22;10106;51.332;12.336;2022-09-20T17:01:33;12.80;99.90
19888;DHT22;10106;51.332;12.336;2022-09-20T17:03:59;12.70;99.90
19888;DHT22;10106;51.332;12.336;2022-09-20T17:06:25;12.50;99.90
19888;DHT22;10106;51.332;12.336;2022-09-20T17:08:54;12.40;99.90
19888;DHT22;10106;51.332;12.336;2022-09-20T17:11:22;12.30;99.90
19888;DHT22;10106;51.332;12.336;2022-09-20T17:13:50;12.10;99.90
19888;DHT22;10106;51.332;12.336;2022-09-20T17:16:21;12.10;99.90
19888;DHT22;10106;51.332;12.336;2022-09-20T17:18:52;11.90;99.90
19888;DHT22;10106;51.332;12.336;2022-09-20T17:21:19;11.90;99.90
19888;DHT22;10106;51.332;12.336;2022-09-20T17:23:46;11.80;99.90
19888;DHT22;10106;51.332;12.336;2022-09-20T17:26:15;11.70;99.90
19888;DHT22;10106;51.332;12.336;2022-09-20T17:28:46;11.60;99.90
19888;DHT22;10106;51.332;12.336;2022-09-20T17:31:15;11.50;99.90
19888;DHT22;10106;51.332;12.336;2022-09-20T17:33:42;11.40;99.90
19888;DHT22;10106;51.332;12.336;2022-09-20T17:36:12;11.30;99.90
19888;DHT22;10106;51.332;12.336;2022-09-20T17:38:38;11.20;99.90
19888;DHT22;10106;51.332;12.336;2022-09-20T17:41:16;11.20;99.90
19888;DHT22;10106;51.332;12.336;2022-09-20T17:43:43;11.00;99.90
19888;DHT22;10106;51.332;12.336;2022-09-20T17:46:15;10.90;99.90
19888;DHT22;10106;51.332;12.336;2022-09-20T17:48:42;10.90;99.90
19888;DHT22;10106;51.332;12.336;2022-09-20T17:51:13;10.80;99.90
19888;DHT22;10106;51.332;12.336;2022-09-20T17:53:40;10.70;99.90
19888;DHT22;10106;51.332;12.336;2022-09-20T17:56:05;10.70;99.90
19888;DHT22;10106;51.332;12.336;2022-09-20T17:58:33;10.60;99.90
19888;DHT22;10106;51.332;12.336;2022-09-20T18:01:11;10.50;99.90
19888;DHT22;10106;51.332;12.336;2022-09-20T18:03:43;10.50;99.90
19888;DHT22;10106;51.332;12.336;2022-09-20T18:06:22;10.50;99.90
19888;DHT22;10106;51.332;12.336;2022-09-20T18:08:50;10.40;99.90
19888;DHT22;10106;51.332;12.336;2022-09-20T18:11:19;10.30;99.90
19888;DHT22;10106;51.332;12.336;2022-09-20T18:13:45;10.30;99.90
19888;DHT22;10106;51.332;12.336;2022-09-20T18:16:12;10.30;99.90
19888;DHT22;10106;51.332;12.336;2022-09-20T18:18:39;10.30;99.90
19888;DHT22;10106;51.332;12.336;2022-09-20T18:21:25;10.30;99.90
19888;DHT22;10106;51.332;12.336;2022-09-20T18:23:51;10.30;99.90
19888;DHT22;10106;51.332;12.336;2022-09-20T18:26:19;10.30;99.90
19888;DHT22;10106;51.332;12.336;2022-09-20T18:28:59;10.40;99.90
19888;DHT22;10106;51.332;12.336;2022-09-20T18:31:34;10.50;99.90
19888;DHT22;10106;51.332;12.336;2022-09-20T18:34:05;10.50;99.90
19888;DHT22;10106;51.332;12.336;2022-09-20T18:36:34;10.70;99.90
19888;DHT22;10106;51.332;12.336;2022-09-20T18:39:01;10.60;99.90
19888;DHT22;10106;51.332;12.336;2022-09-20T18:41:29;10.70;99.90
19888;DHT22;10106;51.332;12.336;2022-09-20T18:44:06;10.80;99.90
19888;DHT22;10106;51.332;12.336;2022-09-20T18:46:35;10.80;99.90
19888;DHT22;10106;51.332;12.336;2022-09-20T18:49:05;10.80;99.90
19888;DHT22;10106;51.332;12.336;2022-09-20T18:51:34;10.80;99.90
19888;DHT22;10106;51.332;12.336;2022-09-20T18:54:03;10.70;99.90
19888;DHT22;10106;51.332;12.336;2022-09-20T18:56:30;10.80;99.90
19888;DHT22;10106;51.332;12.336;2022-09-20T18:59:05;10.70;99.90
19888;DHT22;10106;51.332;12.336;2022-09-20T19:09:48;10.70;99.90
19888;DHT22;10106;51.332;12.336;2022-09-20T19:12:28;10.60;99.90
19888;DHT22;10106;51.332;12.336;2022-09-20T19:20:42;10.50;99.90
19888;DHT22;10106;51.332;12.336;2022-09-20T19:25:45;10.30;99.90
19888;DHT22;10106;51.332;12.336;2022-09-20T19:28:14;10.20;99.90
19888;DHT22;10106;51.332;12.336;2022-09-20T19:30:40;10.20;99.90
19888;DHT22;10106;51.332;12.336;2022-09-20T19:33:17;10.10;99.90
19888;DHT22;10106;51.332;12.336;2022-09-20T19:35:50;10.10;99.90
19888;DHT22;10106;51.332;12.336;2022-09-20T19:38:39;10.00;99.90
19888;DHT22;10106;51.332;12.336;2022-09-20T19:44:16;9.80;99.90
19888;DHT22;10106;51.332;12.336;2022-09-20T19:49:59;9.70;99.90
19888;DHT22;10106;51.332;12.336;2022-09-20T19:52:27;9.60;99.90
19888;DHT22;10106;51.332;12.336;2022-09-20T19:54:53;9.60;99.90
19888;DHT22;10106;51.332;12.336;2022-09-20T20:00:22;9.50;99.90
19888;DHT22;10106;51.332;12.336;2022-09-20T20:02:51;9.40;99.90
19888;DHT22;10106;51.332;12.336;2022-09-20T20:05:19;9.40;99.90
19888;DHT22;10106;51.332;12.336;2022-09-20T20:13:08;9.20;99.90
19888;DHT22;10106;51.332;12.336;2022-09-20T20:16:02;9.20;99.90
19888;DHT22;10106;51.332;12.336;2022-09-20T20:24:42;9.00;99.90
19888;DHT22;10106;51.332;12.336;2022-09-20T20:27:11;9.00;99.90
19888;DHT22;10106;51.332;12.336;2022-09-20T20:29:36;8.90;99.90
19888;DHT22;10106;51.332;12.336;2022-09-20T20:32:02;8.90;99.90
19888;DHT22;10106;51.332;12.336;2022-09-20T20:34:28;8.90;99.90
19888;DHT22;10106;51.332;12.336;2022-09-20T20:36:54;8.90;99.90
19888;DHT22;10106;51.332;12.336;2022-09-20T20:39:28;8.90;99.90
19888;DHT22;10106;51.332;12.336;2022-09-20T20:42:00;8.80;99.90